»·PEaware :: N475RS KVNY-KLAS

N475RS :: KVNY-KLAS

FLIGHT INFORMATION

Flight Status: Arrived
Operator: Privately registered:
United States
More flights under this callsign
Pilot: Aker J. (16898)
Aircraft: GULFSTREAM G-1159C GULFSTREAM 4
(GLF4)
More flights by this aircraft type
Origin: KVNY Van Nuys
United States
Destination: KLAS McCarran Intl
United States
More flights between these airports :: More routes between these airports
Route: +NUAL9 DAG MISEN KEPEC6
File this flight plan on PilotEdge
Remarks: N475RS
Altitude:
(Current/Filed)
45,000ft
Speed:
(Current/Filed)
300kts
Departed: 01-Jan-18 09:44 PM
Arrived: 01-Jan-18 10:46 PM
Distance/Time
Traveled:
206nm/1:02
Distance/Time
To Go:
Arrived

Flight Plot

Page will automatically refresh every two minutes.

Flight plan parsing failed; only flown route is shown


Map Options




Map Legend


Flown Route
Filed Route
Departure Airport
Arrival Airport
Navaid (VOR, NDB)
Fix

Horizontal Profiles

Position Reports

Time Latitude Longitude Heading Altitude Ground
Speed
01-Jan-18 20:54 34.197177 -118.490792 270 755ft 0kts
01-Jan-18 20:55 34.197177 -118.490792 270 755ft 0kts
01-Jan-18 20:56 34.197177 -118.490792 270 755ft 0kts
01-Jan-18 20:57 34.197177 -118.490792 270 755ft 0kts
01-Jan-18 20:58 34.197177 -118.490792 270 755ft 0kts
01-Jan-18 20:59 34.197177 -118.490792 270 755ft 0kts
01-Jan-18 21:00 34.197177 -118.490792 270 755ft 0kts
01-Jan-18 21:01 34.197177 -118.490792 270 755ft 0kts
01-Jan-18 21:02 34.197177 -118.490792 270 755ft 0kts
01-Jan-18 21:03 34.197177 -118.490792 270 755ft 0kts
01-Jan-18 21:10 34.197190 -118.490789 270 755ft 0kts
01-Jan-18 21:11 34.197190 -118.490789 270 755ft 0kts
01-Jan-18 21:12 34.197190 -118.490789 270 755ft 0kts
01-Jan-18 21:13 34.197190 -118.490789 270 755ft 0kts
01-Jan-18 21:14 34.197190 -118.490789 270 755ft 0kts
01-Jan-18 21:15 34.197190 -118.490789 270 755ft 0kts
01-Jan-18 21:16 34.197190 -118.490789 270 755ft 0kts
01-Jan-18 21:17 34.197190 -118.490789 270 755ft 0kts
01-Jan-18 21:18 34.197190 -118.490789 270 755ft 0kts
01-Jan-18 21:19 34.197190 -118.490789 270 755ft 0kts
01-Jan-18 21:20 34.197190 -118.490789 270 755ft 0kts
01-Jan-18 21:21 34.197190 -118.490789 270 755ft 0kts
01-Jan-18 21:22 34.197190 -118.490789 270 755ft 0kts
01-Jan-18 21:23 34.197190 -118.490789 270 755ft 0kts
01-Jan-18 21:24 34.197190 -118.490789 270 755ft 0kts
01-Jan-18 21:25 34.197190 -118.490789 270 755ft 0kts
01-Jan-18 21:26 34.197190 -118.490789 270 755ft 0kts
01-Jan-18 21:27 34.197190 -118.490789 270 755ft 0kts
01-Jan-18 21:28 34.197190 -118.490789 270 755ft 0kts
01-Jan-18 21:29 34.197190 -118.490789 270 755ft 0kts
01-Jan-18 21:30 34.197190 -118.490789 270 755ft 0kts
01-Jan-18 21:31 34.197190 -118.490789 270 755ft 0kts
01-Jan-18 21:32 34.197190 -118.490789 270 755ft 0kts
01-Jan-18 21:33 34.197190 -118.490789 270 755ft 0kts
01-Jan-18 21:34 34.197190 -118.490789 270 755ft 0kts
01-Jan-18 21:35 34.197190 -118.490789 270 755ft 0kts
01-Jan-18 21:36 34.197190 -118.490789 270 755ft 0kts
01-Jan-18 21:37 34.197190 -118.490789 270 755ft 0kts
01-Jan-18 21:38 34.197190 -118.490789 270 755ft 0kts
01-Jan-18 21:39 34.197190 -118.490789 270 755ft 0kts
01-Jan-18 21:40 34.197190 -118.490789 270 755ft 0kts
01-Jan-18 21:41 34.197190 -118.490789 270 755ft 0kts
01-Jan-18 21:42 34.197190 -118.490789 270 755ft 0kts
01-Jan-18 21:43 34.197190 -118.490789 270 755ft 0kts
01-Jan-18 21:44 34.197190 -118.490789 270 755ft 0kts
01-Jan-18 21:45 34.197190 -118.490789 270 755ft 0kts
01-Jan-18 21:46 34.197190 -118.490789 270 755ft 0kts
01-Jan-18 21:47 34.197190 -118.490789 269 755ft 0kts
01-Jan-18 21:48 34.197190 -118.490789 269 755ft 0kts
01-Jan-18 21:49 34.200244 -118.490274 355 760ft 38kts
01-Jan-18 21:50 34.210250 -118.491557 356 783ft 44kts
01-Jan-18 21:51 34.218601 -118.492161 43 803ft 0kts
01-Jan-18 21:52 34.218601 -118.492161 43 803ft 0kts
01-Jan-18 21:53 34.218726 -118.491820 86 803ft 7kts
01-Jan-18 21:54 34.204619 -118.489832 175 771ft 148kts
01-Jan-18 21:55 34.160243 -118.470993 123 3139ft 231kts
01-Jan-18 21:56 34.119682 -118.399414 124 4154ft 269kts
01-Jan-18 21:57 34.097119 -118.320709 54 4416ft 254kts
01-Jan-18 21:58 34.159935 -118.328137 310 5117ft 265kts
01-Jan-18 21:59 34.226104 -118.350339 352 6800ft 248kts
01-Jan-18 22:00 34.291300 -118.362489 352 9476ft 227kts
01-Jan-18 22:01 34.359035 -118.375075 352 12540ft 301kts
01-Jan-18 22:02 34.441900 -118.391257 352 14007ft 301kts
01-Jan-18 22:03 34.521722 -118.407365 352 14088ft 299kts
01-Jan-18 22:04 34.603136 -118.423748 352 14086ft 298kts
01-Jan-18 22:05 34.684520 -118.437480 13 14082ft 294kts
01-Jan-18 22:06 34.707036 -118.356905 105 14096ft 302kts
01-Jan-18 22:07 34.680133 -118.254086 103 20652ft 374kts
01-Jan-18 22:08 34.657893 -118.169761 99 22981ft 227kts
01-Jan-18 22:09 34.646715 -118.125088 99 22099ft 232kts
01-Jan-18 22:10 34.633089 -118.058967 69 21533ft 171kts
01-Jan-18 22:11 34.636148 -118.025741 72 20946ft 161kts
01-Jan-18 22:12 34.651698 -117.976275 40 19455ft 177kts
01-Jan-18 22:13 34.657710 -117.905738 92 20779ft 228kts
01-Jan-18 22:14 34.657415 -117.832531 78 21395ft 226kts
01-Jan-18 22:15 34.665675 -117.755094 65 22524ft 233kts
01-Jan-18 22:16 34.683273 -117.686274 64 23277ft 256kts
01-Jan-18 22:17 34.707188 -117.594824 64 24700ft 315kts
01-Jan-18 22:18 34.736436 -117.481795 66 27278ft 406kts
01-Jan-18 22:19 34.774985 -117.329578 68 27295ft 507kts
01-Jan-18 22:20 34.815537 -117.168557 68 27272ft 492kts
01-Jan-18 22:21 34.853855 -117.011316 69 27255ft 483kts
01-Jan-18 22:22 34.890668 -116.850186 69 27265ft 522kts
01-Jan-18 22:23 34.928347 -116.683618 70 27256ft 513kts
01-Jan-18 22:24 34.963751 -116.517197 71 27262ft 510kts
01-Jan-18 22:25 34.997288 -116.349754 73 27278ft 510kts
01-Jan-18 22:26 35.037400 -116.190196 46 27241ft 461kts
01-Jan-18 22:27 35.136022 -116.135310 9 26555ft 374kts
01-Jan-18 22:28 35.229121 -116.068373 30 24348ft 389kts
01-Jan-18 22:29 35.313811 -115.994953 29 24290ft 383kts
01-Jan-18 22:30 35.400573 -115.919765 30 23114ft 393kts
01-Jan-18 22:31 35.484876 -115.846450 31 19961ft 321kts
01-Jan-18 22:32 35.554872 -115.785544 31 16996ft 304kts
01-Jan-18 22:33 35.625854 -115.723631 33 14044ft 295kts
01-Jan-18 22:34 35.688162 -115.662522 43 13019ft 293kts
01-Jan-18 22:35 35.745576 -115.591434 31 12998ft 291kts
01-Jan-18 22:36 35.823395 -115.573116 3 13008ft 289kts
01-Jan-18 22:37 35.903105 -115.567461 2 12999ft 289kts
01-Jan-18 22:38 35.972350 -115.533966 53 12987ft 274kts
01-Jan-18 22:39 36.006010 -115.451617 64 12243ft 272kts
01-Jan-18 22:40 36.027652 -115.364205 88 11736ft 267kts
01-Jan-18 22:41 36.023217 -115.269982 93 11024ft 284kts
01-Jan-18 22:42 36.016876 -115.177364 93 9028ft 256kts
01-Jan-18 22:43 36.011286 -115.096547 93 7561ft 231kts
01-Jan-18 22:44 36.004112 -115.019028 94 5561ft 225kts
01-Jan-18 22:45 35.997461 -114.943647 94 4994ft 225kts
01-Jan-18 22:46 36.029041 -114.908211 332 4988ft 185kts
01-Jan-18 22:47 36.056725 -114.932806 293 4995ft 176kts
01-Jan-18 22:48 36.056690 -114.960919 272 5034ft 178kts
01-Jan-18 22:49 36.070368 -115.019421 279 4138ft 183kts
01-Jan-18 22:50 36.073351 -115.075074 269 2871ft 134kts
01-Jan-18 22:51 36.073562 -115.118719 269 2285ft 134kts
01-Jan-18 22:52 36.073686 -115.151906 277 2128ft 38kts
01-Jan-18 22:53 36.074513 -115.154695 299 2137ft 0kts
01-Jan-18 22:54 36.074513 -115.154695 299 2137ft 0kts
01-Jan-18 22:55 36.222949 -115.084422 203 3659ft 197kts

Navigation Log

Ident Type
Flight plan parsing failed, navigation log unavailable